Time;durP1;ratioP1;P1;durP2;ratioP2;P2;SDS_P1;SDS_P2;PMS_P1;PMS_P2;Temp;Humidity;BMP_temperature;BMP_pressure;BME280_temperature;BME280_humidity;BME280_pressure;Samples;Min_cycle;Max_cycle;Signal;HPM_P1;HPM_P2
2022/10/05 00:01:37;;;;;;;3.70;2.47;;;;;;;9.07;78.25;100325.28;4980146;28;20515;-88
2022/10/05 00:04:18;;;;;;;3.15;2.40;;;;;;;9.12;78.50;100329.94;4973193;28;20030;-89
2022/10/05 00:07:05;;;;;;;3.63;2.70;;;;;;;9.13;78.36;100317.31;4960351;28;20030;-89
2022/10/05 00:09:31;;;;;;;4.65;2.67;;;;;;;9.07;78.69;100321.78;4971738;28;20261;-89
2022/10/05 00:11:56;;;;;;;3.38;2.58;;;;;;;9.02;78.75;100310.91;4979159;28;20026;-89
2022/10/05 00:14:27;;;;;;;3.92;2.67;;;;;;;9.08;78.16;100336.84;4981713;28;20030;-89
2022/10/05 00:16:53;;;;;;;3.75;2.40;;;;;;;8.92;78.02;100321.44;4976362;28;20067;-89
2022/10/05 00:19:21;;;;;;;3.30;2.22;;;;;;;8.87;78.11;100328.31;4965679;28;20485;-88
2022/10/05 00:21:48;;;;;;;4.45;2.28;;;;;;;8.74;78.98;100312.44;4976126;28;20030;-88
2022/10/05 00:24:16;;;;;;;4.35;2.67;;;;;;;8.66;78.63;100323.53;4964251;28;20022;-88
2022/10/05 00:26:42;;;;;;;3.22;2.58;;;;;;;8.67;79.07;100326.00;4960231;28;20030;-89
2022/10/05 00:29:19;;;;;;;3.35;2.65;;;;;;;8.63;79.29;100315.94;4963821;28;20105;-88
2022/10/05 00:31:45;;;;;;;4.85;2.88;;;;;;;8.62;78.99;100322.38;4960947;28;20049;-89
2022/10/05 00:34:10;;;;;;;3.22;2.53;;;;;;;8.58;78.83;100310.44;4947731;28;20460;-88
2022/10/05 00:36:37;;;;;;;2.92;2.38;;;;;;;8.64;78.60;100317.56;4960280;28;20605;-89
2022/10/05 00:39:03;;;;;;;6.28;2.40;;;;;;;8.74;78.96;100338.50;4960349;28;20114;-89
2022/10/05 00:41:39;;;;;;;3.40;2.33;;;;;;;8.77;78.49;100328.06;4959727;28;20026;-89
2022/10/05 00:44:27;;;;;;;5.88;2.72;;;;;;;8.85;78.43;100343.03;4983693;28;20455;-89
2022/10/05 00:47:14;;;;;;;3.65;2.70;;;;;;;9.02;77.94;100354.72;4964423;28;20124;-89
2022/10/05 00:50:14;;;;;;;6.45;2.47;;;;;;;9.11;77.51;100352.50;4983991;28;20026;-89
2022/10/05 00:53:04;;;;;;;5.47;2.53;;;;;;;9.03;78.22;100353.66;4993988;28;20089;-89
2022/10/05 00:55:44;;;;;;;4.22;2.70;;;;;;;8.97;78.43;100351.09;4993574;28;20048;-89
2022/10/05 00:58:31;;;;;;;2.85;2.13;;;;;;;8.94;78.75;100352.38;4995184;28;20022;-88
2022/10/05 01:01:16;;;;;;;4.07;2.60;;;;;;;8.95;78.30;100348.66;4993345;28;20030;-89
2022/10/05 01:03:42;;;;;;;4.25;2.38;;;;;;;8.93;78.49;100358.81;4965368;28;20030;-89
2022/10/05 01:06:25;;;;;;;4.32;2.45;;;;;;;8.84;78.91;100361.03;4994715;28;20026;-89
2022/10/05 01:09:30;;;;;;;3.55;2.80;;;;;;;8.78;78.86;100367.31;5008182;28;20064;-89
2022/10/05 01:12:15;;;;;;;3.17;2.30;;;;;;;8.77;78.64;100371.03;4992764;28;20061;-89
2022/10/05 01:14:51;;;;;;;3.10;2.33;;;;;;;8.61;78.53;100355.59;4986010;28;20042;-88
2022/10/05 01:17:41;;;;;;;5.70;2.50;;;;;;;8.65;78.36;100389.00;4978684;28;20026;-88
2022/10/05 01:20:32;;;;;;;3.28;2.45;;;;;;;8.61;78.35;100388.66;4997049;28;20038;-88
2022/10/05 01:23:31;;;;;;;4.35;2.70;;;;;;;8.65;78.27;100384.47;4995646;28;20105;-89
2022/10/05 01:26:15;;;;;;;4.95;2.60;;;;;;;8.79;78.28;100393.13;4979288;28;20088;-87
2022/10/05 01:28:44;;;;;;;4.93;2.55;;;;;;;8.72;78.48;100391.59;4999851;28;20104;-89
2022/10/05 01:31:21;;;;;;;3.03;2.47;;;;;;;8.66;78.70;100390.66;4966471;28;20124;-89
2022/10/05 01:34:04;;;;;;;4.35;2.80;;;;;;;8.61;78.70;100396.72;4994580;28;20493;-89
2022/10/05 01:36:51;;;;;;;3.85;2.50;;;;;;;8.64;78.40;100390.06;4978940;28;20112;-89
2022/10/05 01:39:26;;;;;;;4.03;2.50;;;;;;;8.55;78.73;100388.75;4987020;28;20080;-89
2022/10/05 01:42:16;;;;;;;5.40;2.90;;;;;;;8.61;79.02;100394.03;4966269;28;20036;-89
2022/10/05 01:44:41;;;;;;;3.58;2.60;;;;;;;8.69;78.44;100404.44;4986642;28;20042;-89
2022/10/05 01:47:11;;;;;;;3.72;2.78;;;;;;;8.57;78.65;100400.06;4996125;28;20034;-89
2022/10/05 01:49:37;;;;;;;4.60;2.80;;;;;;;8.64;78.63;100409.66;4954450;28;20049;-88
2022/10/05 01:52:27;;;;;;;5.55;2.70;;;;;;;8.50;78.05;100414.41;4978977;28;20121;-89
2022/10/05 01:55:02;;;;;;;4.13;2.35;;;;;;;8.46;78.99;100412.41;4988296;28;20042;-89
2022/10/05 01:57:56;;;;;;;4.43;2.90;;;;;;;8.41;78.78;100410.41;4996293;28;20054;-89
2022/10/05 02:00:22;;;;;;;5.35;2.65;;;;;;;8.21;78.75;100394.56;4952732;28;20046;-91
2022/10/05 02:02:51;;;;;;;6.65;2.58;;;;;;;8.22;78.15;100401.56;4947061;28;20437;-88
2022/10/05 02:05:34;;;;;;;3.72;2.67;;;;;;;8.15;78.71;100395.47;4949860;28;20048;-89
2022/10/05 02:08:01;;;;;;;5.65;2.97;;;;;;;8.08;78.73;100394.75;4963210;28;20034;-89
2022/10/05 02:10:47;;;;;;;3.63;2.58;;;;;;;8.10;79.37;100414.94;4983451;28;20026;-88
2022/10/05 02:13:34;;;;;;;6.45;3.17;;;;;;;8.00;79.10;100406.59;4965829;28;20017;-88
2022/10/05 02:16:02;;;;;;;4.38;2.90;;;;;;;7.96;79.55;100418.81;4980990;28;20526;-88
2022/10/05 02:18:58;;;;;;;3.17;2.38;;;;;;;8.06;79.11;100429.84;4948073;28;20112;-88
2022/10/05 02:21:24;;;;;;;3.38;2.50;;;;;;;7.93;79.66;100416.59;4996662;28;20025;-89
2022/10/05 02:23:51;;;;;;;4.45;2.67;;;;;;;8.01;79.49;100426.19;4980013;28;20507;-88
2022/10/05 02:26:17;;;;;;;5.28;2.80;;;;;;;7.99;79.33;100418.38;4962647;28;20030;-89
2022/10/05 02:28:54;;;;;;;5.85;2.83;;;;;;;8.00;79.11;100416.53;4946993;28;20088;-89
2022/10/05 02:31:28;;;;;;;4.45;2.97;;;;;;;8.21;78.72;100429.44;4978289;28;20073;-89
2022/10/05 02:34:25;;;;;;;5.70;3.40;;;;;;;8.41;77.59;100442.63;4981229;28;20045;-89
2022/10/05 02:37:25;;;;;;;4.43;2.95;;;;;;;8.53;77.24;100444.53;5015105;28;20029;-88
2022/10/05 02:40:11;;;;;;;8.27;3.95;;;;;;;8.66;76.68;100449.72;4997177;28;20065;-88
2022/10/05 02:42:55;;;;;;;5.47;3.72;;;;;;;8.59;76.41;100432.88;5013966;28;20046;-88
2022/10/05 02:45:39;;;;;;;6.15;3.50;;;;;;;8.56;77.01;100444.09;4997420;28;20389;-88
2022/10/05 02:48:38;;;;;;;5.32;3.67;;;;;;;8.34;77.35;100424.94;4997258;28;20119;-89
2022/10/05 02:51:23;;;;;;;6.45;3.15;;;;;;;8.20;78.20;100419.75;4993735;28;20412;-88
2022/10/05 02:54:00;;;;;;;4.70;3.08;;;;;;;8.20;78.01;100438.53;4978771;28;20030;-89
2022/10/05 02:56:41;;;;;;;4.28;2.97;;;;;;;8.08;78.30;100435.78;4995373;28;20026;-89
2022/10/05 02:59:24;;;;;;;7.30;3.25;;;;;;;7.96;78.85;100444.81;5001814;28;20037;-88
2022/10/05 03:02:20;;;;;;;8.52;3.22;;;;;;;7.83;78.77;100437.75;5014911;28;20040;-88
2022/10/05 03:05:16;;;;;;;6.35;3.97;;;;;;;7.90;78.63;100457.25;4976751;28;20440;-88
2022/10/05 03:07:47;;;;;;;9.80;4.20;;;;;;;7.87;79.05;100461.22;4995007;28;20058;-89
2022/10/05 03:10:50;;;;;;;4.88;3.70;;;;;;;7.89;79.29;100466.38;4993343;28;20026;-89
2022/10/05 03:13:29;;;;;;;9.40;4.30;;;;;;;7.80;79.19;100455.13;4996506;28;20026;-89
2022/10/05 03:16:32;;;;;;;9.13;4.47;;;;;;;7.78;78.99;100451.00;4962055;28;20034;-89
2022/10/05 03:19:16;;;;;;;6.90;4.07;;;;;;;7.99;78.51;100469.34;4969421;28;20045;-88
2022/10/05 03:21:57;;;;;;;5.65;2.95;;;;;;;8.11;77.43;100469.38;4996297;28;20412;-89
2022/10/05 03:24:29;;;;;;;5.97;2.63;;;;;;;8.23;76.65;100462.22;4965091;28;20032;-89
2022/10/05 03:27:36;;;;;;;3.85;2.55;;;;;;;8.16;76.48;100464.19;4996260;28;20048;-89
2022/10/05 03:30:21;;;;;;;2.70;2.08;;;;;;;8.17;76.62;100479.22;4904824;29;20032;-89
2022/10/05 03:33:09;;;;;;;5.32;2.20;;;;;;;8.28;76.17;100470.44;4957691;28;20149;-88
2022/10/05 03:35:50;;;;;;;5.45;2.78;;;;;;;8.01;76.54;100461.06;4995870;28;20142;-88
2022/10/05 03:38:37;;;;;;;4.13;2.20;;;;;;;8.23;76.34;100499.78;4998179;28;20060;-89
2022/10/05 03:41:30;;;;;;;3.90;2.55;;;;;;;8.32;75.96;100489.56;4996525;28;20276;-89
2022/10/05 03:44:04;;;;;;;5.50;2.60;;;;;;;8.33;75.69;100493.91;4997415;28;20026;-88
2022/10/05 03:46:44;;;;;;;3.97;2.85;;;;;;;8.36;75.60;100497.97;5013569;28;20084;-87
2022/10/05 03:49:15;;;;;;;4.53;2.50;;;;;;;8.38;75.71;100496.72;4996670;28;20116;-87
2022/10/05 03:52:09;;;;;;;4.65;2.50;;;;;;;8.38;75.27;100506.63;5013674;28;20033;-88
2022/10/05 03:55:01;;;;;;;4.40;2.58;;;;;;;8.21;75.06;100467.00;4994856;28;20487;-96
2022/10/05 03:57:31;;;;;;;3.03;2.25;;;;;;;8.22;74.74;100465.97;5002675;28;20025;-96
2022/10/05 04:00:04;;;;;;;9.07;2.33;;;;;;;8.17;75.25;100478.41;5005913;28;20064;-95
2022/10/05 04:02:36;;;;;;;3.78;2.80;;;;;;;8.16;74.85;100492.88;4989709;28;20013;-92
2022/10/05 04:05:11;;;;;;;4.55;2.47;;;;;;;8.00;76.05;100478.19;4990106;28;20021;-94
2022/10/05 04:07:42;;;;;;;6.55;2.58;;;;;;;8.40;75.23;100509.91;5000575;28;20100;-90
2022/10/05 04:10:21;;;;;;;3.03;2.20;;;;;;;8.31;75.21;100490.63;4996128;28;20026;-92
2022/10/05 04:13:24;;;;;;;4.47;2.88;;;;;;;8.21;76.28;100519.84;4964724;28;20124;-89
2022/10/05 04:16:17;;;;;;;3.72;2.63;;;;;;;8.05;77.10;100526.63;4988498;28;20109;-88
2022/10/05 04:18:44;;;;;;;6.45;3.20;;;;;;;7.94;77.28;100536.22;4986881;28;20046;-88
2022/10/05 04:21:21;;;;;;;7.78;3.40;;;;;;;7.83;77.22;100521.69;4944232;28;20028;-88
2022/10/05 04:23:57;;;;;;;5.38;2.75;;;;;;;7.80;77.23;100508.75;4944510;28;20023;-91
2022/10/05 04:26:58;;;;;;;3.47;2.90;;;;;;;7.94;77.02;100540.78;4945921;28;20062;-89
2022/10/05 04:29:26;;;;;;;9.73;3.63;;;;;;;7.89;77.34;100536.09;4976047;28;20460;-93
2022/10/05 04:32:13;;;;;;;5.65;3.22;;;;;;;7.83;77.30;100532.41;4994072;28;20110;-91
2022/10/05 04:35:05;;;;;;;6.13;3.72;;;;;;;7.75;77.41;100540.75;4993482;28;20054;-91
2022/10/05 04:37:50;;;;;;;;;;;;;;;7.80;77.71;100556.16;4946233;28;20076;-89
2022/10/05 04:40:40;;;;;;;6.03;3.78;;;;;;;7.56;77.65;100539.88;4976181;28;20020;-91
2022/10/05 04:43:44;;;;;;;6.57;3.58;;;;;;;7.51;77.63;100557.66;4976329;28;20034;-92
2022/10/05 04:46:16;;;;;;;14.55;6.53;;;;;;;7.42;77.78;100559.81;4964383;28;20038;-92
2022/10/05 04:49:07;;;;;;;6.28;3.40;;;;;;;7.42;77.97;100557.13;4963431;28;20034;-94
2022/10/05 04:51:38;;;;;;;8.75;3.88;;;;;;;7.58;77.85;100569.16;4979598;28;20101;-92
2022/10/05 04:54:41;;;;;;;5.93;3.40;;;;;;;7.49;78.23;100576.63;4961295;28;20393;-90
2022/10/05 04:57:10;;;;;;;14.35;4.28;;;;;;;7.25;78.04;100554.16;4978216;28;20277;-90
2022/10/05 05:00:12;;;;;;;10.18;3.70;;;;;;;7.29;78.01;100560.72;4960294;28;20106;-90
2022/10/05 05:03:23;;;;;;;12.52;4.65;;;;;;;7.20;78.29;100562.84;4960059;28;20064;-91
2022/10/05 05:06:08;;;;;;;6.82;4.00;;;;;;;7.19;78.57;100571.09;4922363;28;20066;-91
2022/10/05 05:08:55;;;;;;;7.90;4.97;;;;;;;7.34;78.39;100579.63;4976966;28;20054;-92
2022/10/05 05:11:26;;;;;;;9.32;6.03;;;;;;;7.38;78.78;100580.84;4977834;28;20412;-96
2022/10/05 05:14:27;;;;;;;11.43;5.43;;;;;;;7.26;78.50;100555.78;5010117;28;20038;-95
2022/10/05 05:17:02;;;;;;;10.00;5.40;;;;;;;7.56;78.07;100584.63;4974144;28;20034;-95
2022/10/05 05:19:46;;;;;;;14.38;5.57;;;;;;;7.63;77.63;100596.94;4983353;28;20074;-95
2022/10/05 05:22:21;;;;;;;11.30;5.97;;;;;;;7.57;77.72;100594.31;4977638;28;20081;-96
2022/10/05 05:25:15;;;;;;;8.45;4.75;;;;;;;7.59;77.54;100592.22;4975950;28;20037;-96
2022/10/05 05:27:41;;;;;;;8.13;4.78;;;;;;;7.66;77.30;100603.75;4982171;28;20058;-93
2022/10/05 05:30:31;;;;;;;13.27;5.35;;;;;;;7.63;77.21;100588.88;4986235;28;20034;-94
2022/10/05 05:33:08;;;;;;;12.32;5.57;;;;;;;7.80;76.43;100599.06;4939031;28;20048;-93
2022/10/05 05:35:56;;;;;;;13.13;6.32;;;;;;;7.84;77.30;100598.44;4925783;28;20036;-96
2022/10/05 05:38:42;;;;;;;17.90;5.63;;;;;;;8.14;76.52;100623.72;4927105;28;20051;-96
2022/10/05 05:41:30;;;;;;;10.30;5.03;;;;;;;7.96;75.94;100603.88;4936080;29;20028;-96
2022/10/05 05:44:09;;;;;;;16.70;5.72;;;;;;;8.16;76.03;100629.69;4909244;29;20039;-95
2022/10/05 05:46:36;;;;;;;12.07;5.93;;;;;;;8.10;76.17;100613.44;4907359;29;20106;-96
2022/10/05 05:49:37;;;;;;;14.48;6.35;;;;;;;8.16;75.78;100600.19;4906412;29;20050;-96
2022/10/05 05:52:38;;;;;;;12.20;5.85;;;;;;;8.41;75.16;100621.63;4928692;29;20046;-95
2022/10/05 05:55:23;;;;;;;17.38;6.00;;;;;;;8.64;75.67;100653.97;4950417;28;20043;-95
2022/10/05 05:57:57;;;;;;;11.43;6.60;;;;;;;8.39;75.36;100605.72;4919634;29;20052;-95
2022/10/05 06:00:27;;;;;;;12.43;5.57;;;;;;;8.42;74.83;100621.38;4938639;28;20043;-96
2022/10/05 06:03:30;;;;;;;15.57;7.70;;;;;;;8.73;75.83;100640.25;4919933;28;20053;-95
2022/10/05 06:06:15;;;;;;;11.65;6.15;;;;;;;8.99;74.38;100661.44;4981892;28;20046;-96
2022/10/05 06:09:05;;;;;;;13.15;5.82;;;;;;;8.88;74.48;100628.09;4982093;28;20075;-96
2022/10/05 06:11:55;;;;;;;3.85;3.15;;;;;;;9.20;72.97;100632.44;4989820;28;20026;-96
2022/10/05 06:14:35;;;;;;;6.82;3.17;;;;;;;9.38;72.01;100621.63;4967496;28;20128;-95
2022/10/05 06:17:20;;;;;;;;;;;;;;;;;;;;;
2022/10/05 06:19:52;;;;;;;8.48;4.10;;;;;;;9.74;72.17;100644.03;4971355;28;20082;-94
2022/10/05 06:22:22;;;;;;;7.95;4.45;;;;;;;10.00;73.35;100650.84;4973266;28;20057;-94
2022/10/05 06:25:01;;;;;;;4.40;3.67;;;;;;;9.99;71.93;100637.63;4997908;28;20089;-95
2022/10/05 06:28:06;;;;;;;10.15;6.10;;;;;;;10.20;71.25;100657.75;4990300;28;20018;-96
2022/10/05 06:34:48;;;;;;;3.85;2.90;;;;;;;10.50;69.75;100663.03;4937522;29;20047;-96
2022/10/05 06:37:23;;;;;;;4.70;3.22;;;;;;;10.36;70.12;100627.47;4933805;29;20047;-94
2022/10/05 06:40:11;;;;;;;4.97;2.97;;;;;;;10.66;70.39;100666.88;4993650;28;20081;-94
2022/10/05 06:42:39;;;;;;;4.00;2.88;;;;;;;10.72;70.24;100669.41;5005360;28;20026;-93
2022/10/05 06:45:04;;;;;;;5.57;3.03;;;;;;;10.89;69.81;100674.06;5001645;28;20038;-95
2022/10/05 06:47:45;;;;;;;15.63;9.50;;;;;;;10.99;69.20;100660.81;4981984;28;20030;-93
2022/10/05 11:30:04;;;;;;;1.30;1.00;;;;;;;17.86;40.41;100577.75;5642844;23;20054;-95
2022/10/05 11:33:10;;;;;;;1.52;1.00;;;;;;;18.06;40.08;100590.38;5016939;28;20053;-92
2022/10/05 11:36:13;;;;;;;;;;;;;;;;;;;;;
2022/10/05 11:38:58;;;;;;;2.58;0.95;;;;;;;18.07;42.34;100562.00;5007470;28;20042;-96
2022/10/05 11:41:54;;;;;;;2.03;1.10;;;;;;;18.31;41.68;100588.47;4975695;28;20015;-94
2022/10/05 11:45:00;;;;;;;3.45;1.20;;;;;;;18.40;42.09;100586.72;5009112;28;20029;-93
2022/10/05 11:47:49;;;;;;;2.47;1.17;;;;;;;18.47;41.09;100587.19;5011870;28;20053;-93
2022/10/05 11:50:15;;;;;;;1.02;0.88;;;;;;;18.44;40.72;100576.06;4980764;28;20113;-95
2022/10/05 11:53:17;;;;;;;2.13;1.35;;;;;;;18.35;41.03;100557.59;4992842;28;20057;-96
2022/10/05 11:56:01;;;;;;;0.70;0.70;;;;;;;18.22;40.64;100558.31;4965406;28;20034;-95
2022/10/05 11:58:41;;;;;;;5.60;1.13;;;;;;;18.40;41.40;100566.84;4981458;28;20049;-94
2022/10/05 12:01:33;;;;;;;2.38;1.40;;;;;;;18.33;41.04;100562.53;4971722;28;20029;-92
2022/10/05 12:04:38;;;;;;;2.20;1.27;;;;;;;18.26;40.70;100569.44;4972194;28;20117;-93
2022/10/05 12:07:19;;;;;;;1.40;1.00;;;;;;;18.40;41.20;100566.84;5005901;28;20026;-94
2022/10/05 12:10:26;;;;;;;1.20;0.77;;;;;;;18.45;40.74;100569.47;5017888;28;20032;-96
2022/10/05 12:13:09;;;;;;;1.08;0.70;;;;;;;18.22;40.68;100541.13;4981265;28;20053;-96
2022/10/05 12:16:50;;;;;;;;;;;;;;;;;;;;;
2022/10/05 12:19:16;;;;;;;1.75;0.98;;;;;;;18.28;40.22;100570.78;4971140;28;20051;-93
2022/10/05 12:22:02;;;;;;;1.33;0.80;;;;;;;18.21;39.95;100567.59;4948323;29;20130;-95
2022/10/05 12:24:36;;;;;;;2.90;1.05;;;;;;;18.15;41.06;100566.03;4931925;29;20027;-95
2022/10/05 12:27:27;;;;;;;;;;;;;;;;;;;;;
2022/10/05 12:30:24;;;;;;;1.80;1.20;;;;;;;17.95;41.21;100575.22;4956655;28;20126;-95
2022/10/05 12:33:11;;;;;;;3.22;1.20;;;;;;;17.93;41.04;100570.06;4959142;28;20277;-95
2022/10/05 12:35:39;;;;;;;3.78;2.53;;;;;;;18.03;41.46;100573.78;4925673;28;20045;-93
2022/10/05 12:38:20;;;;;;;1.02;0.90;;;;;;;17.93;41.44;100572.81;4959417;28;20065;-93
2022/10/05 12:41:12;;;;;;;1.48;1.10;;;;;;;18.14;41.06;100583.50;4943044;28;20050;-96
2022/10/05 12:44:17;;;;;;;3.00;1.10;;;;;;;18.01;41.03;100565.88;4944387;29;20028;-96
2022/10/05 12:46:55;;;;;;;1.85;0.93;;;;;;;18.07;40.53;100572.09;4893520;29;20036;-96
2022/10/05 12:49:30;;;;;;;2.05;1.60;;;;;;;18.19;40.09;100575.25;4917379;28;20039;-93
2022/10/05 12:52:04;;;;;;;1.40;0.80;;;;;;;18.15;40.24;100587.81;4958734;28;20515;-94
2022/10/05 12:54:47;;;;;;;1.95;0.90;;;;;;;17.86;40.49;100571.50;4939875;29;20034;-96
2022/10/05 12:57:31;;;;;;;3.97;2.00;;;;;;;17.72;41.35;100549.53;4952230;28;20113;-95
2022/10/05 13:03:27;;;;;;;4.88;1.05;;;;;;;17.92;41.23;100565.72;4962087;28;20029;-96
2022/10/05 13:06:47;;;;;;;3.10;1.30;;;;;;;17.74;40.97;100536.44;4958580;28;20035;-96
2022/10/05 13:09:21;;;;;;;1.80;1.02;;;;;;;17.63;41.38;100535.72;4907877;29;20099;-95
2022/10/05 13:12:02;;;;;;;2.20;1.10;;;;;;;17.59;41.25;100518.34;4940730;29;20493;-96
2022/10/05 13:14:54;;;;;;;1.77;1.17;;;;;;;17.70;41.15;100551.72;4938931;29;20413;-94
2022/10/05 13:17:20;;;;;;;0.90;0.80;;;;;;;17.66;41.34;100551.50;4976693;28;20037;-93
2022/10/05 13:20:31;;;;;;;1.98;0.95;;;;;;;17.57;41.30;100553.22;4996801;28;20022;-95
2022/10/05 13:23:30;;;;;;;1.40;1.00;;;;;;;17.38;41.61;100515.00;4978427;28;20038;-95
2022/10/05 13:26:04;;;;;;;1.52;0.77;;;;;;;17.48;41.72;100523.06;5001151;28;20097;-96
2022/10/05 13:29:09;;;;;;;2.33;1.33;;;;;;;17.51;40.77;100508.88;4964993;28;20156;-96
2022/10/05 13:31:49;;;;;;;2.38;1.02;;;;;;;17.69;40.75;100520.16;4985958;28;20042;-96
2022/10/05 13:34:35;;;;;;;2.30;0.90;;;;;;;17.72;40.23;100522.28;4950697;28;20060;-93
2022/10/05 13:37:04;;;;;;;1.63;0.98;;;;;;;17.88;39.42;100531.97;4963182;28;20129;-95
2022/10/05 13:39:57;;;;;;;2.83;1.40;;;;;;;18.00;39.40;100526.13;4977788;28;20036;-93
2022/10/05 13:42:32;;;;;;;4.10;1.30;;;;;;;17.87;37.92;100524.09;4978606;28;20026;-94
2022/10/05 13:45:27;;;;;;;1.83;0.90;;;;;;;17.92;38.33;100527.56;4978191;28;20089;-94
2022/10/05 13:48:50;;;;;;;1.25;0.88;;;;;;;17.95;38.27;100510.66;4964150;28;20365;-96
2022/10/05 13:51:25;;;;;;;2.42;1.55;;;;;;;18.04;38.69;100524.44;4920743;29;20043;-96
2022/10/05 13:54:09;;;;;;;14.48;9.82;;;;;;;18.14;38.84;100534.44;4967529;28;20566;-94
2022/10/05 13:57:20;;;;;;;2.22;1.38;;;;;;;18.37;38.50;100552.66;4957136;28;20041;-96
2022/10/05 13:59:54;;;;;;;0.80;0.77;;;;;;;18.23;38.44;100526.41;4986988;28;20037;-94
2022/10/05 14:02:34;;;;;;;2.42;0.80;;;;;;;18.40;38.72;100537.63;4956741;28;20058;-95
2022/10/05 14:05:03;;;;;;;2.42;1.42;;;;;;;18.37;39.02;100527.31;4946616;28;20508;-95
2022/10/05 14:07:49;;;;;;;1.05;0.65;;;;;;;18.31;38.54;100517.59;4945597;28;20026;-96
2022/10/05 14:10:37;;;;;;;1.33;0.90;;;;;;;18.38;38.26;100521.56;4966942;28;20033;-95
2022/10/05 14:13:45;;;;;;;1.00;0.80;;;;;;;18.36;38.63;100518.34;4963328;28;20377;-95
2022/10/05 14:16:34;;;;;;;;;;;;;;;;;;;;;
2022/10/05 14:19:02;;;;;;;1.73;0.90;;;;;;;18.49;38.27;100535.91;4963652;28;20411;-94
2022/10/05 14:21:29;;;;;;;0.73;0.70;;;;;;;18.57;37.98;100527.06;4977395;28;20058;-96
2022/10/05 14:23:57;;;;;;;7.18;4.45;;;;;;;18.48;38.53;100511.63;4946686;28;20026;-96
2022/10/05 14:26:26;;;;;;;2.03;0.98;;;;;;;18.53;38.13;100531.47;4945742;28;20038;-92
2022/10/05 14:29:16;;;;;;;1.20;0.80;;;;;;;18.65;38.22;100530.22;4992163;28;20022;-92
2022/10/05 14:32:26;;;;;;;2.50;1.05;;;;;;;18.49;38.17;100505.91;4964512;28;20045;-92
2022/10/05 14:35:12;;;;;;;3.17;1.30;;;;;;;18.44;37.73;100514.13;4971770;28;20096;-92
2022/10/05 14:37:59;;;;;;;5.13;2.00;;;;;;;18.49;38.16;100537.78;4954050;28;20041;-96
2022/10/05 14:40:35;;;;;;;1.60;1.05;;;;;;;18.50;38.42;100525.78;4971961;28;20026;-94
2022/10/05 14:43:12;;;;;;;3.88;1.50;;;;;;;18.46;39.01;100536.47;4951489;28;20030;-92
2022/10/05 14:46:01;;;;;;;1.70;1.00;;;;;;;18.36;38.67;100521.06;5009801;28;20530;-92
2022/10/05 14:48:28;;;;;;;1.58;1.30;;;;;;;18.31;39.22;100532.03;4990264;28;20140;-94
2022/10/05 14:51:05;;;;;;;5.28;2.85;;;;;;;18.30;39.23;100533.16;4952152;28;20026;-94
2022/10/05 14:53:43;;;;;;;1.10;0.98;;;;;;;18.30;39.07;100524.97;4956460;28;20547;-95
2022/10/05 14:56:43;;;;;;;5.28;3.42;;;;;;;18.04;39.37;100510.00;4973772;28;20106;-94
2022/10/05 14:59:15;;;;;;;5.25;2.63;;;;;;;18.14;39.89;100535.22;4997394;28;20033;-95
2022/10/05 15:01:49;;;;;;;1.55;0.98;;;;;;;17.89;39.79;100530.06;4982343;28;20041;-94
2022/10/05 15:04:41;;;;;;;1.55;0.98;;;;;;;17.87;39.90;100535.00;4970621;28;20117;-95
2022/10/05 15:07:19;;;;;;;3.35;1.77;;;;;;;17.79;40.75;100539.13;4981459;28;20093;-93
2022/10/05 15:10:09;;;;;;;5.15;2.58;;;;;;;17.63;41.71;100543.09;5006609;28;20030;-94
2022/10/05 15:13:00;;;;;;;4.68;1.52;;;;;;;17.49;41.33;100521.16;5000112;28;20026;-93
2022/10/05 15:15:44;;;;;;;2.17;1.20;;;;;;;17.32;44.34;100544.16;4972875;28;20034;-94
2022/10/05 15:18:10;;;;;;;1.98;1.40;;;;;;;17.33;44.30;100548.53;5000069;28;20477;-95
2022/10/05 15:20:52;;;;;;;3.03;1.88;;;;;;;17.13;44.88;100540.50;5000092;28;20083;-94
2022/10/05 15:23:33;;;;;;;4.65;2.38;;;;;;;17.07;45.67;100561.50;4969525;28;20096;-96
2022/10/05 15:26:41;;;;;;;4.30;1.65;;;;;;;17.00;45.13;100558.28;5003552;28;20036;-96
2022/10/05 15:29:29;;;;;;;38.05;25.83;;;;;;;16.84;45.86;100545.88;4985140;28;20050;-95
2022/10/05 15:32:06;;;;;;;12.65;9.52;;;;;;;16.68;46.40;100523.34;4983831;28;20109;-94
2022/10/05 15:34:46;;;;;;;3.70;1.65;;;;;;;16.84;46.21;100565.72;4966582;28;20129;-96
2022/10/05 15:37:15;;;;;;;2.55;1.10;;;;;;;16.84;45.52;100563.00;4975742;28;20022;-94
2022/10/05 15:40:01;;;;;;;1.92;1.10;;;;;;;16.86;45.15;100565.44;4960779;28;20112;-95
2022/10/05 15:42:43;;;;;;;5.03;2.17;;;;;;;16.75;46.14;100559.22;4945016;28;20027;-96
2022/10/05 15:45:18;;;;;;;5.22;2.35;;;;;;;16.76;46.41;100571.72;4945985;28;20047;-96
2022/10/05 15:47:59;;;;;;;5.10;1.80;;;;;;;16.61;47.34;100566.38;4959693;28;20436;-94
2022/10/05 15:50:27;;;;;;;7.28;2.60;;;;;;;16.55;47.48;100560.13;4947123;28;20030;-96
2022/10/05 15:53:33;;;;;;;5.40;2.80;;;;;;;16.46;47.77;100562.63;4933260;28;20467;-96
2022/10/05 15:56:18;;;;;;;12.02;5.90;;;;;;;16.54;47.96;100580.28;4948714;28;20130;-95
2022/10/05 15:58:45;;;;;;;8.07;3.60;;;;;;;16.41;48.53;100580.84;4941296;29;20492;-95
2022/10/05 16:01:30;;;;;;;3.40;2.45;;;;;;;16.24;48.73;100559.44;4957340;28;20166;-95
2022/10/05 16:04:04;;;;;;;10.82;4.82;;;;;;;16.22;49.25;100583.38;4947402;28;20031;-96
2022/10/05 16:09:50;;;;;;;5.83;2.43;;;;;;;16.09;49.06;100591.00;4961511;28;20038;-95
2022/10/05 16:12:39;;;;;;;4.45;2.22;;;;;;;15.80;49.39;100581.81;4958853;28;20041;-93
2022/10/05 16:15:20;;;;;;;5.22;2.28;;;;;;;15.77;50.42;100604.88;4939893;28;20047;-96
2022/10/05 16:18:08;;;;;;;3.50;2.13;;;;;;;15.56;51.13;100604.06;4958679;28;20037;-95
2022/10/05 16:20:39;;;;;;;6.25;2.58;;;;;;;15.29;52.56;100609.72;4959626;28;20109;-94
2022/10/05 16:23:11;;;;;;;6.85;3.08;;;;;;;15.21;52.42;100616.53;4959399;28;20115;-94
2022/10/05 16:25:58;;;;;;;7.55;2.53;;;;;;;14.98;53.20;100585.25;4959808;28;20093;-94
2022/10/05 16:28:46;;;;;;;4.97;2.92;;;;;;;14.92;53.92;100603.44;4966065;28;20424;-95
2022/10/05 16:31:30;;;;;;;6.25;3.55;;;;;;;14.64;54.30;100599.25;4962720;28;20101;-95
2022/10/05 16:34:15;;;;;;;4.38;2.65;;;;;;;14.57;55.01;100619.53;4962703;28;20523;-95
2022/10/05 16:36:46;;;;;;;5.88;3.10;;;;;;;14.54;55.23;100624.38;4978414;28;20027;-95
2022/10/05 16:39:36;;;;;;;8.20;3.20;;;;;;;14.34;56.24;100619.69;4961756;28;20026;-93
2022/10/05 16:42:05;;;;;;;5.55;2.45;;;;;;;14.21;56.79;100612.03;4977388;28;20030;-95
2022/10/05 16:44:48;;;;;;;9.80;3.05;;;;;;;14.31;56.62;100622.91;4946824;28;20026;-95
2022/10/05 16:47:42;;;;;;;9.30;3.63;;;;;;;14.29;56.95;100630.50;4977429;28;20080;-95
2022/10/05 16:50:21;;;;;;;5.07;3.00;;;;;;;14.25;57.36;100632.09;4962443;28;20057;-95
2022/10/05 16:52:51;;;;;;;9.90;3.45;;;;;;;13.91;57.82;100610.75;4963238;28;20031;-95
2022/10/05 16:55:22;;;;;;;7.45;3.20;;;;;;;13.84;57.98;100618.28;4946471;28;20026;-95
2022/10/05 16:57:51;;;;;;;5.85;3.30;;;;;;;13.73;58.95;100625.50;4945900;28;20022;-93
2022/10/05 17:00:19;;;;;;;7.53;3.70;;;;;;;13.86;59.10;100647.78;4945790;28;20030;-94
2022/10/05 17:03:09;;;;;;;6.85;3.42;;;;;;;13.75;59.52;100642.28;4977536;28;20030;-95
2022/10/05 17:05:50;;;;;;;6.68;3.83;;;;;;;13.65;62.07;100644.09;4978364;28;20030;-94
2022/10/05 17:08:58;;;;;;;6.07;3.13;;;;;;;13.61;61.15;100635.69;4961404;28;20176;-95
2022/10/05 17:11:54;;;;;;;4.75;3.20;;;;;;;13.63;61.52;100643.56;4962921;28;20041;-94
2022/10/05 17:14:54;;;;;;;8.57;3.72;;;;;;;13.53;62.01;100638.88;4976309;28;20092;-94
2022/10/05 17:17:50;;;;;;;33.83;12.38;;;;;;;13.43;62.14;100661.25;4976188;28;20061;-94
2022/10/05 17:20:22;;;;;;;8.32;4.60;;;;;;;13.27;62.03;100665.63;4976898;28;20026;-94
2022/10/05 17:22:57;;;;;;;8.32;3.83;;;;;;;13.01;62.85;100650.19;4981339;28;20074;-95
2022/10/05 17:25:23;;;;;;;7.22;4.35;;;;;;;13.14;62.93;100661.44;4962166;28;20183;-94
2022/10/05 17:28:15;;;;;;;10.77;4.22;;;;;;;12.79;63.75;100632.13;4995034;28;20117;-93
2022/10/05 17:31:06;;;;;;;14.15;7.35;;;;;;;12.92;63.85;100661.44;4952633;28;20097;-95
2022/10/05 17:33:32;;;;;;;9.60;4.20;;;;;;;12.85;63.59;100650.03;4978043;28;20419;-93
2022/10/05 17:36:18;;;;;;;6.40;3.42;;;;;;;13.08;63.58;100659.75;4972629;28;20024;-96
2022/10/05 17:39:11;;;;;;;9.20;3.53;;;;;;;12.83;64.62;100633.25;4996377;28;20121;-94